Time;durP1;ratioP1;P1;durP2;ratioP2;P2;SDS_P1;SDS_P2;PMS_P1;PMS_P2;Temp;Humidity;BMP_temperature;BMP_pressure;BME280_temperature;BME280_humidity;BME280_pressure;Samples;Min_cycle;Max_cycle;Signal;HPM_P1;HPM_P2
2022/10/25 00:01:37;;;;;;;21.50;15.77;;;13.20;99.90;;;;;;4988571;28;20455;-31
2022/10/25 00:04:03;;;;;;;22.02;14.95;;;13.20;99.90;;;;;;4989340;28;20042;-31
2022/10/25 00:06:28;;;;;;;22.02;15.77;;;13.20;99.90;;;;;;4986029;28;20488;-29
2022/10/25 00:08:54;;;;;;;19.77;15.23;;;13.20;99.90;;;;;;4983154;28;20525;-30
2022/10/25 00:11:27;;;;;;;21.80;16.10;;;13.10;99.90;;;;;;4983906;28;20129;-30
2022/10/25 00:13:54;;;;;;;23.00;16.00;;;13.10;99.90;;;;;;4980588;28;20043;-31
2022/10/25 00:16:24;;;;;;;18.88;14.85;;;13.10;99.90;;;;;;4982907;28;20567;-30
2022/10/25 00:18:50;;;;;;;19.80;14.68;;;13.00;99.90;;;;;;4980519;28;20576;-33
2022/10/25 00:21:16;;;;;;;20.15;15.07;;;13.00;99.90;;;;;;4988419;28;20091;-31
2022/10/25 00:23:42;;;;;;;22.10;15.35;;;13.00;99.90;;;;;;4983968;28;20128;-31
2022/10/25 00:26:10;;;;;;;24.48;15.27;;;12.90;99.90;;;;;;4986465;28;20041;-31
2022/10/25 00:28:36;;;;;;;18.92;13.98;;;12.90;99.90;;;;;;4979614;28;20602;-31
2022/10/25 00:31:10;;;;;;;22.20;15.35;;;12.80;99.90;;;;;;4983994;28;20057;-30
2022/10/25 00:33:37;;;;;;;19.27;14.23;;;12.80;99.90;;;;;;4981272;28;20042;-31
2022/10/25 00:36:24;;;;;;;19.75;14.60;;;12.70;99.90;;;;;;4986120;28;20496;-29
2022/10/25 00:38:50;;;;;;;20.48;14.18;;;12.70;99.90;;;;;;4978778;28;20046;-32
2022/10/25 00:41:19;;;;;;;21.65;13.93;;;12.60;99.90;;;;;;4982657;28;20041;-29
2022/10/25 00:43:54;;;;;;;21.27;14.00;;;12.50;99.90;;;;;;4979069;28;20431;-31
2022/10/25 00:46:20;;;;;;;22.20;15.00;;;12.50;99.90;;;;;;4991584;28;20125;-31
2022/10/25 00:49:07;;;;;;;21.77;14.43;;;12.50;99.90;;;;;;4988645;28;20039;-30
2022/10/25 00:51:56;;;;;;;24.60;14.45;;;12.50;99.90;;;;;;4983056;28;20518;-30
2022/10/25 00:54:27;;;;;;;24.02;14.77;;;12.40;99.90;;;;;;4987459;28;20046;-29
2022/10/25 00:56:55;;;;;;;24.92;14.25;;;12.40;99.90;;;;;;4992573;28;20136;-29
2022/10/25 00:59:25;;;;;;;20.77;12.93;;;12.40;99.90;;;;;;4996118;28;20046;-30
2022/10/25 01:01:53;;;;;;;24.42;14.45;;;12.50;99.90;;;;;;4987763;28;20038;-31
2022/10/25 01:04:23;;;;;;;22.20;14.02;;;12.50;99.90;;;;;;4984599;28;20133;-30
2022/10/25 01:06:52;;;;;;;24.70;14.98;;;12.60;99.90;;;;;;4985395;28;20062;-30
2022/10/25 01:09:27;;;;;;;21.35;14.57;;;12.60;99.90;;;;;;4976466;28;20407;-31
2022/10/25 01:11:53;;;;;;;19.73;12.68;;;12.60;99.90;;;;;;4984594;28;20042;-30
2022/10/25 01:14:19;;;;;;;16.75;13.27;;;12.60;99.90;;;;;;4990626;28;20562;-30
2022/10/25 01:16:55;;;;;;;19.30;12.07;;;12.60;99.90;;;;;;4981550;28;20038;-30
2022/10/25 01:19:26;;;;;;;22.55;13.65;;;12.60;99.90;;;;;;4991709;28;20082;-31
2022/10/25 01:21:55;;;;;;;20.23;12.68;;;12.60;99.90;;;;;;4988438;28;20035;-30
2022/10/25 01:24:39;;;;;;;20.95;12.73;;;12.60;99.90;;;;;;4983771;28;20042;-32
2022/10/25 01:27:27;;;;;;;18.10;11.93;;;12.60;99.90;;;;;;4984452;28;20542;-30
2022/10/25 01:30:02;;;;;;;19.55;12.30;;;12.50;99.90;;;;;;4980372;28;20489;-32
2022/10/25 01:32:40;;;;;;;18.92;11.43;;;12.50;99.90;;;;;;4974025;28;20066;-33
2022/10/25 01:35:24;;;;;;;19.63;11.90;;;12.50;99.90;;;;;;4978944;28;20058;-30
2022/10/25 01:37:49;;;;;;;;;;;12.40;99.90;;;;;;4985408;28;20085;-31
2022/10/25 01:40:15;;;;;;;20.85;10.93;;;12.40;99.90;;;;;;4991527;28;20371;-31
2022/10/25 01:42:56;;;;;;;20.70;12.30;;;12.40;99.90;;;;;;4990054;28;20038;-32
2022/10/25 01:45:33;;;;;;;15.88;10.85;;;12.40;99.90;;;;;;4987891;28;20046;-30
2022/10/25 01:48:07;;;;;;;17.55;11.38;;;12.40;99.90;;;;;;4978575;28;20074;-32
2022/10/25 01:50:38;;;;;;;17.90;11.13;;;12.30;99.90;;;;;;4988312;28;20046;-30
2022/10/25 01:53:04;;;;;;;16.73;10.43;;;12.30;99.90;;;;;;4980397;28;20034;-31
2022/10/25 01:55:41;;;;;;;19.90;11.88;;;12.30;99.90;;;;;;4988438;28;20415;-31
2022/10/25 01:58:23;;;;;;;17.45;10.90;;;12.20;99.90;;;;;;4973334;28;20500;-30
2022/10/25 02:01:05;;;;;;;17.05;10.40;;;12.20;99.90;;;;;;4986535;28;20060;-31
2022/10/25 02:03:47;;;;;;;15.23;10.45;;;12.20;99.90;;;;;;4991240;28;20034;-30
2022/10/25 02:06:19;;;;;;;16.92;10.10;;;12.20;99.90;;;;;;4986655;28;20547;-30
2022/10/25 02:08:54;;;;;;;18.42;10.95;;;12.10;99.90;;;;;;4977776;28;20519;-30
2022/10/25 02:11:30;;;;;;;15.93;11.30;;;12.10;99.90;;;;;;4983515;28;20038;-32
2022/10/25 02:14:05;;;;;;;18.75;10.50;;;12.20;99.90;;;;;;4983370;28;20045;-31
2022/10/25 02:16:43;;;;;;;16.00;11.35;;;12.10;99.90;;;;;;4988021;28;20132;-32
2022/10/25 02:19:13;;;;;;;20.92;12.25;;;12.20;99.90;;;;;;4977370;28;20512;-30
2022/10/25 02:21:41;;;;;;;18.02;11.18;;;12.20;99.90;;;;;;4987272;28;20392;-30
2022/10/25 02:24:17;;;;;;;19.88;12.55;;;12.30;99.90;;;;;;4990955;28;20438;-30
2022/10/25 02:26:44;;;;;;;21.77;12.77;;;12.30;99.90;;;;;;4983643;28;20038;-29
2022/10/25 02:29:11;;;;;;;18.90;12.70;;;12.30;99.90;;;;;;4982918;28;20049;-29
2022/10/25 02:31:37;;;;;;;18.20;12.40;;;12.40;99.90;;;;;;4982822;28;20404;-31
2022/10/25 02:34:04;;;;;;;23.00;14.40;;;12.40;99.90;;;;;;4978631;28;20463;-31
2022/10/25 02:36:30;;;;;;;20.70;12.88;;;12.40;99.90;;;;;;4980093;28;20038;-30
2022/10/25 02:38:57;;;;;;;25.65;14.52;;;12.40;99.90;;;;;;4987221;28;20397;-32
2022/10/25 02:41:23;;;;;;;19.23;13.93;;;12.50;99.90;;;;;;4973362;28;20112;-31
2022/10/25 02:43:48;;;;;;;20.10;14.00;;;12.60;99.90;;;;;;4982906;28;20066;-31
2022/10/25 02:46:20;;;;;;;21.25;13.65;;;12.60;99.90;;;;;;4990667;28;20042;-31
2022/10/25 02:48:47;;;;;;;21.92;14.60;;;12.70;99.90;;;;;;4990645;28;20484;-30
2022/10/25 02:51:14;;;;;;;22.42;14.65;;;12.70;99.90;;;;;;4989906;28;20050;-30
2022/10/25 02:53:39;;;;;;;20.65;14.13;;;12.80;99.90;;;;;;4979095;28;20053;-31
2022/10/25 02:56:11;;;;;;;23.27;14.25;;;12.80;99.90;;;;;;4977785;28;20493;-30
2022/10/25 02:58:38;;;;;;;21.23;13.93;;;12.90;99.90;;;;;;4982368;28;20117;-31
2022/10/25 03:01:05;;;;;;;22.27;13.95;;;12.90;99.90;;;;;;4986513;28;20427;-29
2022/10/25 03:03:31;;;;;;;21.92;13.90;;;12.90;99.90;;;;;;4975235;28;20039;-29
2022/10/25 03:05:57;;;;;;;19.77;13.55;;;12.90;99.90;;;;;;4985472;28;20064;-31
2022/10/25 03:08:23;;;;;;;20.17;13.38;;;12.90;99.90;;;;;;4987813;28;20054;-32
2022/10/25 03:10:49;;;;;;;21.23;14.15;;;12.90;99.90;;;;;;4985639;28;20122;-33
2022/10/25 03:13:16;;;;;;;21.77;13.88;;;12.90;99.90;;;;;;4987299;28;20397;-31
2022/10/25 03:15:43;;;;;;;23.52;14.65;;;13.00;99.90;;;;;;4983796;28;20035;-30
2022/10/25 03:18:10;;;;;;;21.50;13.32;;;13.00;99.90;;;;;;4982838;28;20061;-30
2022/10/25 03:20:35;;;;;;;18.33;13.23;;;13.00;99.90;;;;;;4982382;28;20126;-31
2022/10/25 03:23:01;;;;;;;22.17;13.43;;;12.90;99.90;;;;;;4990950;28;20121;-31
2022/10/25 03:25:27;;;;;;;20.40;13.57;;;12.90;99.90;;;;;;4985497;28;20035;-32
2022/10/25 03:27:53;;;;;;;24.25;15.45;;;12.90;99.90;;;;;;4990987;28;20027;-30
2022/10/25 03:30:18;;;;;;;19.55;13.10;;;12.90;99.90;;;;;;4976290;28;20145;-32
2022/10/25 03:32:44;;;;;;;20.75;14.05;;;12.90;99.90;;;;;;4986196;28;20050;-33
2022/10/25 03:35:10;;;;;;;24.52;14.45;;;12.90;99.90;;;;;;4989923;28;20553;-29
2022/10/25 03:37:36;;;;;;;18.73;13.30;;;12.90;99.90;;;;;;4975607;28;20286;-31
2022/10/25 03:40:01;;;;;;;19.27;13.25;;;12.90;99.90;;;;;;4977524;28;20389;-32
2022/10/25 03:42:27;;;;;;;23.88;13.43;;;12.90;99.90;;;;;;4979875;28;20042;-31
2022/10/25 03:44:53;;;;;;;18.20;12.48;;;12.90;99.90;;;;;;4990506;28;20027;-30
2022/10/25 03:47:19;;;;;;;23.58;14.70;;;12.90;99.90;;;;;;4982269;28;20117;-31
2022/10/25 03:49:44;;;;;;;22.48;13.10;;;12.90;99.90;;;;;;4983503;28;20035;-30
2022/10/25 03:52:10;;;;;;;26.42;13.05;;;12.90;99.90;;;;;;4987672;28;20061;-31
2022/10/25 03:54:36;;;;;;;21.08;13.82;;;12.90;99.90;;;;;;4991240;28;20045;-31
2022/10/25 03:57:03;;;;;;;19.02;13.15;;;12.90;99.90;;;;;;4992559;28;20042;-30
2022/10/25 03:59:29;;;;;;;23.67;13.77;;;12.90;99.90;;;;;;4988345;28;20418;-33
2022/10/25 04:01:55;;;;;;;20.70;13.77;;;12.90;99.90;;;;;;4988550;28;20117;-33
2022/10/25 04:04:20;;;;;;;22.33;13.93;;;12.90;99.90;;;;;;4992191;28;20038;-30
2022/10/25 04:06:46;;;;;;;27.20;14.35;;;12.90;99.90;;;;;;4990020;28;20039;-32
2022/10/25 04:09:12;;;;;;;22.52;13.55;;;12.90;99.90;;;;;;4986153;28;20031;-30
2022/10/25 04:11:38;;;;;;;23.30;13.40;;;12.90;99.90;;;;;;4990045;28;20484;-31
2022/10/25 04:14:04;;;;;;;21.85;14.52;;;12.80;99.90;;;;;;4988972;28;20038;-30
2022/10/25 04:16:29;;;;;;;20.02;14.75;;;12.80;99.90;;;;;;4987817;28;20486;-31
2022/10/25 04:18:57;;;;;;;27.00;14.30;;;12.80;99.90;;;;;;4964665;28;20043;-32
2022/10/25 04:21:24;;;;;;;22.80;13.75;;;12.90;99.90;;;;;;4985370;28;20106;-32
2022/10/25 04:23:51;;;;;;;22.10;14.30;;;12.90;99.90;;;;;;4987574;28;20062;-33
2022/10/25 04:26:18;;;;;;;20.70;13.35;;;13.00;99.90;;;;;;4988260;28;20038;-31
2022/10/25 04:28:49;;;;;;;24.02;14.68;;;13.00;99.90;;;;;;4989085;28;20049;-30
2022/10/25 04:31:15;;;;;;;19.75;13.82;;;13.00;99.90;;;;;;4981936;28;20038;-31
2022/10/25 04:33:40;;;;;;;18.85;12.95;;;13.10;99.90;;;;;;4989559;28;20038;-32
2022/10/25 04:36:07;;;;;;;19.10;13.13;;;13.10;99.90;;;;;;4986202;28;20042;-30
2022/10/25 04:38:32;;;;;;;23.60;14.93;;;13.10;99.90;;;;;;4990162;28;20055;-31
2022/10/25 04:41:00;;;;;;;20.52;13.57;;;13.10;99.90;;;;;;4983160;28;20030;-31
2022/10/25 04:43:28;;;;;;;21.75;13.68;;;13.10;99.90;;;;;;4993177;28;20125;-30
2022/10/25 04:45:54;;;;;;;17.05;12.45;;;13.10;99.90;;;;;;4988638;28;20070;-30
2022/10/25 04:48:21;;;;;;;22.15;13.60;;;13.20;99.90;;;;;;4984162;28;20046;-31
2022/10/25 04:50:47;;;;;;;24.38;13.23;;;13.10;99.90;;;;;;4989397;28;20097;-30
2022/10/25 04:53:13;;;;;;;24.02;13.30;;;13.10;99.90;;;;;;4991571;28;20050;-30
2022/10/25 04:55:38;;;;;;;21.45;13.23;;;13.10;99.90;;;;;;4989302;28;20061;-31
2022/10/25 04:58:04;;;;;;;24.73;13.57;;;13.00;99.90;;;;;;4992744;28;20125;-30
2022/10/25 05:00:30;;;;;;;21.33;13.70;;;13.00;99.90;;;;;;4979020;28;20059;-30
2022/10/25 05:02:56;;;;;;;23.45;12.82;;;12.90;99.90;;;;;;4983138;28;20166;-30
2022/10/25 05:05:23;;;;;;;20.38;13.45;;;12.90;99.90;;;;;;4992647;28;20052;-34
2022/10/25 05:07:49;;;;;;;21.80;13.77;;;12.90;99.90;;;;;;4989181;28;20150;-30
2022/10/25 05:10:16;;;;;;;25.33;13.70;;;12.80;99.90;;;;;;4992667;28;20401;-31
2022/10/25 05:12:41;;;;;;;20.98;14.00;;;12.70;99.90;;;;;;4983425;28;20042;-31
2022/10/25 05:15:08;;;;;;;24.63;14.07;;;12.60;99.90;;;;;;4988903;28;20037;-31
2022/10/25 05:17:34;;;;;;;21.35;13.32;;;12.60;99.90;;;;;;4988043;28;20488;-31
2022/10/25 05:20:00;;;;;;;20.98;12.70;;;12.60;99.90;;;;;;4968344;28;20043;-31
2022/10/25 05:22:26;;;;;;;23.38;13.52;;;12.50;99.90;;;;;;4985356;28;20073;-32
2022/10/25 05:24:53;;;;;;;22.38;12.90;;;12.50;99.90;;;;;;4980847;28;20121;-31
2022/10/25 05:27:18;;;;;;;25.05;13.68;;;12.50;99.90;;;;;;4986086;28;20035;-29
2022/10/25 05:29:44;;;;;;;24.40;13.18;;;12.50;99.90;;;;;;4991825;28;20057;-30
2022/10/25 05:32:10;;;;;;;20.75;13.15;;;12.40;99.90;;;;;;4988100;28;20400;-36
2022/10/25 05:34:35;;;;;;;22.00;13.13;;;12.40;99.90;;;;;;4990766;28;20038;-30
2022/10/25 05:37:01;;;;;;;24.50;13.63;;;12.40;99.90;;;;;;4987132;28;20046;-32
2022/10/25 05:39:27;;;;;;;25.70;13.35;;;12.40;99.90;;;;;;4982957;28;20616;-30
2022/10/25 05:41:52;;;;;;;27.95;15.20;;;12.40;99.90;;;;;;4979027;28;20035;-31
2022/10/25 05:44:18;;;;;;;32.53;18.13;;;12.50;99.90;;;;;;4980922;28;20042;-31
2022/10/25 05:46:44;;;;;;;19.75;13.13;;;12.50;99.90;;;;;;4984184;28;20039;-31
2022/10/25 05:49:11;;;;;;;23.05;11.77;;;12.50;99.90;;;;;;4981076;28;20045;-32
2022/10/25 05:51:37;;;;;;;19.42;12.52;;;12.50;99.90;;;;;;4986664;28;20156;-32
2022/10/25 05:54:06;;;;;;;18.90;13.75;;;12.50;99.90;;;;;;4970004;28;20065;-31
2022/10/25 05:56:33;;;;;;;22.23;11.52;;;12.50;99.90;;;;;;4985374;28;20101;-31
2022/10/25 05:59:10;;;;;;;19.75;11.80;;;12.50;99.90;;;;;;4959507;28;20134;-32
2022/10/25 06:01:42;;;;;;;21.33;11.50;;;12.50;99.90;;;;;;4976241;28;20038;-30
2022/10/25 06:04:08;;;;;;;17.92;10.95;;;12.50;99.90;;;;;;4987538;28;20038;-31
2022/10/25 06:06:35;;;;;;;17.92;10.57;;;12.50;99.90;;;;;;4990267;28;20534;-32
2022/10/25 06:09:02;;;;;;;21.45;10.60;;;12.50;99.90;;;;;;4991428;28;20454;-30
2022/10/25 06:11:28;;;;;;;17.92;10.75;;;12.50;99.90;;;;;;4990092;28;20042;-33
2022/10/25 06:13:54;;;;;;;16.70;11.20;;;12.40;99.90;;;;;;4990930;28;20046;-31
2022/10/25 06:16:21;;;;;;;23.23;11.98;;;12.40;99.90;;;;;;4989009;28;20065;-31
2022/10/25 06:18:47;;;;;;;19.50;10.68;;;12.40;99.90;;;;;;4989480;28;20053;-33
2022/10/25 06:21:18;;;;;;;24.10;11.73;;;12.40;99.90;;;;;;4977684;28;20034;-33
2022/10/25 06:23:45;;;;;;;23.35;11.68;;;12.40;99.90;;;;;;4981640;28;20515;-30
2022/10/25 06:26:17;;;;;;;17.45;10.80;;;12.30;99.90;;;;;;4984497;28;20045;-32
2022/10/25 06:28:43;;;;;;;19.35;10.73;;;12.30;99.90;;;;;;4991581;28;20511;-31
2022/10/25 06:31:11;;;;;;;26.67;12.00;;;12.30;99.90;;;;;;4990451;28;20076;-31
2022/10/25 06:33:37;;;;;;;24.65;11.25;;;12.20;99.90;;;;;;4989280;28;20404;-31
2022/10/25 06:36:06;;;;;;;20.00;11.95;;;12.20;99.90;;;;;;4980340;28;20497;-29
2022/10/25 06:38:32;;;;;;;20.75;10.43;;;12.20;99.90;;;;;;4979749;28;20038;-32
2022/10/25 06:41:03;;;;;;;25.55;11.52;;;12.20;99.90;;;;;;4976765;28;20043;-31
2022/10/25 06:43:30;;;;;;;23.52;11.88;;;12.20;99.90;;;;;;4986511;28;20496;-32
2022/10/25 06:45:56;;;;;;;30.17;11.90;;;12.30;99.90;;;;;;4979923;28;20085;-30
2022/10/25 06:48:23;;;;;;;22.95;11.75;;;12.40;99.90;;;;;;4987784;28;20562;-32
2022/10/25 06:50:59;;;;;;;24.80;12.50;;;12.40;99.90;;;;;;4989406;28;20034;-31
2022/10/25 06:53:24;;;;;;;25.52;12.45;;;12.50;99.90;;;;;;4978441;28;20069;-30
2022/10/25 06:55:50;;;;;;;24.05;12.35;;;12.60;99.90;;;;;;4981827;28;20034;-31
2022/10/25 06:58:16;;;;;;;24.92;12.65;;;12.60;99.90;;;;;;4985273;28;20047;-32
2022/10/25 07:00:41;;;;;;;21.77;11.70;;;12.70;99.90;;;;;;4978677;28;20038;-31
2022/10/25 07:03:07;;;;;;;29.17;11.90;;;12.70;99.90;;;;;;4982111;28;20076;-30
2022/10/25 07:05:33;;;;;;;22.73;12.80;;;12.80;99.90;;;;;;4986993;28;20043;-30
2022/10/25 07:07:59;;;;;;;30.63;13.07;;;12.80;99.90;;;;;;4976647;28;20035;-30
2022/10/25 07:10:24;;;;;;;21.25;12.52;;;12.80;99.90;;;;;;4973454;28;20143;-31
2022/10/25 07:12:50;;;;;;;21.45;11.95;;;12.80;99.90;;;;;;4971085;28;20063;-31
2022/10/25 07:15:16;;;;;;;49.53;24.50;;;12.90;99.90;;;;;;4988951;28;20034;-33
2022/10/25 07:17:41;;;;;;;55.20;31.35;;;12.90;99.90;;;;;;4982421;28;20110;-32
2022/10/25 07:20:07;;;;;;;35.90;18.17;;;13.10;99.90;;;;;;4990017;28;20034;-30
2022/10/25 07:22:33;;;;;;;31.27;15.88;;;13.10;99.90;;;;;;4986984;28;20093;-32
2022/10/25 07:24:59;;;;;;;34.63;13.93;;;13.20;99.90;;;;;;4989525;28;20042;-30
2022/10/25 07:27:24;;;;;;;22.88;14.43;;;13.20;99.90;;;;;;4993892;28;20140;-30
2022/10/25 07:29:50;;;;;;;28.08;15.77;;;13.20;99.90;;;;;;4973471;28;20041;-31
2022/10/25 07:32:16;;;;;;;46.85;23.30;;;13.20;99.90;;;;;;4993675;28;20042;-31
2022/10/25 07:34:42;;;;;;;29.48;14.77;;;13.20;99.90;;;;;;4982027;28;20510;-30
2022/10/25 07:37:07;;;;;;;30.17;16.52;;;13.30;99.90;;;;;;4990668;28;20042;-31
2022/10/25 07:39:33;;;;;;;19.45;11.70;;;13.40;99.90;;;;;;4987727;28;20049;-31
2022/10/25 07:41:59;;;;;;;23.25;11.77;;;13.40;99.90;;;;;;4983573;28;20495;-32
2022/10/25 07:44:24;;;;;;;21.00;11.90;;;13.40;99.90;;;;;;4992135;28;20050;-34
2022/10/25 07:46:51;;;;;;;20.45;10.27;;;13.50;99.90;;;;;;4993772;28;20034;-34
2022/10/25 07:49:17;;;;;;;18.13;10.20;;;13.50;99.90;;;;;;4990939;28;20435;-33
2022/10/25 07:51:43;;;;;;;18.77;10.68;;;13.60;99.90;;;;;;4990150;28;20101;-31
2022/10/25 07:54:09;;;;;;;19.08;10.55;;;13.70;99.90;;;;;;4990130;28;20042;-32
2022/10/25 07:56:35;;;;;;;16.75;10.10;;;13.70;99.90;;;;;;4990465;28;20416;-32
2022/10/25 07:59:00;;;;;;;23.88;11.52;;;13.70;99.90;;;;;;4989127;28;20038;-30
2022/10/25 08:01:27;;;;;;;18.33;10.32;;;13.80;99.90;;;;;;4990060;28;20089;-31
2022/10/25 08:03:54;;;;;;;18.77;11.65;;;13.90;99.90;;;;;;4974912;28;20057;-31
2022/10/25 08:06:22;;;;;;;22.77;11.60;;;13.90;99.90;;;;;;4993241;28;20042;-31
2022/10/25 08:08:48;;;;;;;21.52;11.55;;;13.90;99.90;;;;;;4992475;28;20125;-31
2022/10/25 08:11:14;;;;;;;20.48;11.63;;;14.00;99.90;;;;;;4993252;28;20445;-33
2022/10/25 08:13:40;;;;;;;19.58;10.80;;;14.20;99.90;;;;;;4985559;28;20045;-31
2022/10/25 08:16:06;;;;;;;15.80;10.90;;;14.40;99.90;;;;;;4987151;28;20117;-30
2022/10/25 08:18:33;;;;;;;17.27;10.15;;;14.70;99.90;;;;;;4991219;28;20554;-32
2022/10/25 08:21:03;;;;;;;20.45;10.77;;;14.80;99.90;;;;;;4991298;28;20385;-31
2022/10/25 08:23:30;;;;;;;19.83;11.20;;;14.80;99.90;;;;;;4985664;28;20030;-31
2022/10/25 08:25:59;;;;;;;18.40;10.75;;;14.80;99.90;;;;;;4987664;28;20091;-31
2022/10/25 08:28:25;;;;;;;23.05;11.77;;;14.70;99.90;;;;;;4989253;28;20045;-31
2022/10/25 08:30:52;;;;;;;19.80;11.43;;;14.70;99.90;;;;;;4975294;28;20042;-32
2022/10/25 08:33:18;;;;;;;20.25;11.10;;;14.90;99.90;;;;;;4988707;28;20038;-32
2022/10/25 08:35:44;;;;;;;19.05;10.75;;;15.20;99.90;;;;;;4990658;28;20101;-32
2022/10/25 08:38:10;;;;;;;18.48;11.25;;;15.80;99.90;;;;;;4989305;28;20057;-31
2022/10/25 08:40:41;;;;;;;17.60;10.57;;;16.00;99.90;;;;;;4989987;28;20161;-30
2022/10/25 08:43:47;;;;;;;16.55;10.30;;;16.00;99.90;;;;;;4988595;28;20088;-32
2022/10/25 08:46:25;;;;;;;12.15;9.82;;;16.10;99.90;;;;;;4990127;28;20046;-31
2022/10/25 08:49:20;;;;;;;14.45;10.77;;;15.80;99.90;;;;;;4987200;28;20404;-32
2022/10/25 08:51:49;;;;;;;17.75;10.35;;;15.60;99.90;;;;;;4986372;28;20519;-33
2022/10/25 08:54:23;;;;;;;15.48;10.02;;;15.70;99.90;;;;;;4989842;28;20149;-32
2022/10/25 08:56:54;;;;;;;16.20;10.38;;;15.90;99.90;;;;;;4987826;28;20132;-29
2022/10/25 08:59:29;;;;;;;15.15;10.82;;;16.00;99.90;;;;;;4983271;28;20177;-29
2022/10/25 09:01:58;;;;;;;15.77;9.60;;;15.90;99.90;;;;;;4983452;28;20114;-29
2022/10/25 09:04:24;;;;;;;16.50;10.30;;;16.00;99.90;;;;;;4989859;28;20046;-30
2022/10/25 09:07:10;;;;;;;14.20;9.38;;;16.60;99.90;;;;;;5001538;28;20433;-31
2022/10/25 09:09:48;;;;;;;14.63;9.20;;;17.00;99.90;;;;;;4992619;28;20169;-30
2022/10/25 09:12:35;;;;;;;13.57;9.48;;;17.10;99.90;;;;;;4984836;28;20429;-31
2022/10/25 09:15:16;;;;;;;14.30;7.75;;;16.80;99.90;;;;;;4965434;28;20054;-32
2022/10/25 09:17:50;;;;;;;11.25;7.85;;;16.70;99.90;;;;;;4979989;28;20554;-31
2022/10/25 09:20:35;;;;;;;11.95;7.57;;;16.60;99.90;;;;;;5000442;28;20042;-30
2022/10/25 09:23:22;;;;;;;16.30;8.25;;;16.60;99.90;;;;;;4987199;28;20030;-31
2022/10/25 09:26:09;;;;;;;13.32;7.70;;;16.80;99.90;;;;;;4989146;28;20038;-32
2022/10/25 09:28:56;;;;;;;14.90;8.25;;;17.10;99.90;;;;;;4989887;28;20038;-30
2022/10/25 09:31:23;;;;;;;10.63;7.03;;;17.40;99.90;;;;;;4982299;28;20391;-33
2022/10/25 09:33:55;;;;;;;11.85;6.82;;;17.70;99.90;;;;;;4987075;28;20579;-29
2022/10/25 09:36:21;;;;;;;12.75;6.63;;;17.80;99.90;;;;;;4986632;28;20137;-29
2022/10/25 09:38:55;;;;;;;10.73;6.35;;;17.60;99.90;;;;;;4989177;28;20042;-30
2022/10/25 09:41:32;;;;;;;12.98;6.90;;;17.30;99.90;;;;;;4990600;28;20042;-32
2022/10/25 09:44:08;;;;;;;9.20;5.50;;;17.00;99.90;;;;;;4988048;28;20041;-29
2022/10/25 09:46:41;;;;;;;10.77;5.78;;;16.80;99.90;;;;;;4973836;28;20038;-32
2022/10/25 09:49:28;;;;;;;8.93;5.32;;;16.70;99.90;;;;;;4986405;28;20035;-32
2022/10/25 09:52:17;;;;;;;11.18;5.90;;;16.50;99.90;;;;;;4988237;28;20117;-29
2022/10/25 09:54:53;;;;;;;10.32;5.90;;;16.40;99.90;;;;;;4990919;28;20046;-30
2022/10/25 09:57:19;;;;;;;10.35;5.82;;;16.40;99.90;;;;;;4991770;28;20042;-31
2022/10/25 09:59:49;;;;;;;11.55;5.43;;;16.40;99.90;;;;;;4984424;28;20097;-31
2022/10/25 10:02:22;;;;;;;7.30;5.53;;;16.40;99.90;;;;;;4990508;28;20042;-30
2022/10/25 10:04:48;;;;;;;9.95;5.47;;;16.50;99.90;;;;;;4991768;28;20041;-30
2022/10/25 10:07:17;;;;;;;11.90;4.60;;;16.60;99.90;;;;;;4990100;28;20031;-30
2022/10/25 10:09:43;;;;;;;9.90;4.78;;;16.90;99.90;;;;;;4989278;28;20048;-31
2022/10/25 10:12:23;;;;;;;9.68;4.47;;;17.30;99.90;;;;;;4986663;28;20489;-32
2022/10/25 10:14:56;;;;;;;8.68;4.03;;;17.60;99.90;;;;;;4985470;28;20042;-30
2022/10/25 10:17:23;;;;;;;8.45;4.40;;;17.40;99.90;;;;;;4983519;28;20047;-32
2022/10/25 10:20:12;;;;;;;9.75;4.43;;;17.10;99.90;;;;;;4985698;28;20047;-32
2022/10/25 10:22:53;;;;;;;9.15;4.32;;;16.70;99.90;;;;;;4984047;28;20034;-32
2022/10/25 10:25:25;;;;;;;10.68;5.07;;;16.50;99.90;;;;;;4986791;28;20074;-31
2022/10/25 10:27:55;;;;;;;11.75;4.70;;;16.50;99.90;;;;;;4986687;28;20041;-30
2022/10/25 10:30:29;;;;;;;7.43;4.57;;;16.50;99.90;;;;;;4980172;28;20042;-31
2022/10/25 10:33:02;;;;;;;8.73;3.97;;;16.40;99.90;;;;;;4981315;28;20034;-33
2022/10/25 10:35:33;;;;;;;5.28;3.85;;;16.90;99.90;;;;;;4991904;28;20069;-31
2022/10/25 10:38:27;;;;;;;7.75;3.88;;;17.60;99.90;;;;;;4987040;28;20042;-31
2022/10/25 10:41:14;;;;;;;7.75;4.05;;;18.00;99.90;;;;;;4984009;28;20034;-30
2022/10/25 10:43:40;;;;;;;6.32;4.07;;;18.10;99.90;;;;;;4992556;28;20034;-30
2022/10/25 10:46:14;;;;;;;8.40;3.72;;;18.10;99.90;;;;;;4982124;28;20041;-30
2022/10/25 10:48:41;;;;;;;;;;;18.10;99.90;;;;;;4991852;28;20385;-31
2022/10/25 10:51:07;;;;;;;7.10;3.90;;;18.20;99.90;;;;;;4991884;28;20418;-31
2022/10/25 10:53:33;;;;;;;8.93;4.05;;;18.30;99.90;;;;;;4987680;28;20038;-30
2022/10/25 10:56:05;;;;;;;8.07;3.92;;;18.30;99.90;;;;;;4986443;28;20126;-30
2022/10/25 10:58:38;;;;;;;6.72;3.10;;;18.20;99.90;;;;;;4987525;28;20129;-30
2022/10/25 11:01:15;;;;;;;7.03;3.53;;;18.10;99.90;;;;;;4985581;28;20400;-33
2022/10/25 11:03:41;;;;;;;6.15;3.85;;;18.20;99.90;;;;;;4979387;28;20150;-31
2022/10/25 11:06:12;;;;;;;6.15;3.30;;;18.40;99.90;;;;;;4987772;28;20069;-31
2022/10/25 11:08:38;;;;;;;8.50;3.38;;;18.70;99.90;;;;;;4988536;28;20038;-34
2022/10/25 11:11:17;;;;;;;5.80;2.90;;;19.20;99.90;;;;;;4992313;28;20069;-31
2022/10/25 11:14:08;;;;;;;7.05;2.88;;;19.60;99.90;;;;;;4992114;28;20096;-31
2022/10/25 11:17:03;;;;;;;4.72;2.80;;;19.50;99.90;;;;;;4988996;28;20504;-30
2022/10/25 11:19:55;;;;;;;10.00;3.55;;;18.90;99.90;;;;;;4991561;28;20496;-32
2022/10/25 11:22:59;;;;;;;8.43;3.60;;;18.60;99.90;;;;;;4988950;28;20039;-33
2022/10/25 11:25:57;;;;;;;8.80;3.10;;;18.20;99.90;;;;;;4992894;28;20049;-31
2022/10/25 11:28:22;;;;;;;8.50;3.50;;;18.40;99.90;;;;;;4974911;28;20047;-31
2022/10/25 11:31:01;;;;;;;8.52;3.63;;;18.30;99.90;;;;;;4993594;28;20053;-31
2022/10/25 11:34:21;;;;;;;7.30;3.92;;;18.10;99.90;;;;;;4991352;28;20047;-32
2022/10/25 11:37:07;;;;;;;6.00;3.33;;;18.10;99.90;;;;;;4952766;28;20043;-30
2022/10/25 11:39:51;;;;;;;5.35;3.20;;;18.10;99.90;;;;;;4986825;28;20504;-30
2022/10/25 11:42:16;;;;;;;;;;;18.00;99.90;;;;;;4987167;28;20061;-33
2022/10/25 11:45:10;;;;;;;4.43;2.95;;;17.80;99.90;;;;;;4991660;28;20375;-32
2022/10/25 11:48:19;;;;;;;8.88;3.15;;;17.70;99.90;;;;;;4990893;28;20507;-31
2022/10/25 11:51:18;;;;;;;7.70;2.85;;;17.70;99.90;;;;;;4982129;28;20085;-31
2022/10/25 11:54:20;;;;;;;5.15;3.28;;;17.60;99.90;;;;;;4990473;28;20053;-30
2022/10/25 11:57:00;;;;;;;9.82;3.88;;;17.30;99.90;;;;;;4975742;28;20057;-30
2022/10/25 12:00:00;;;;;;;7.05;3.50;;;17.20;99.90;;;;;;4991180;28;20093;-30
2022/10/25 12:02:32;;;;;;;6.65;3.22;;;17.30;99.90;;;;;;4988661;28;20117;-31
2022/10/25 12:05:19;;;;;;;7.75;3.58;;;17.60;99.90;;;;;;4988536;28;20035;-32
2022/10/25 12:08:12;;;;;;;6.13;3.58;;;17.60;99.90;;;;;;4959499;28;20134;-33
2022/10/25 12:10:41;;;;;;;7.40;3.15;;;17.50;99.90;;;;;;4995961;28;20049;-30
2022/10/25 12:13:10;;;;;;;6.88;3.10;;;17.60;99.90;;;;;;4991942;28;20362;-33
2022/10/25 12:15:42;;;;;;;5.97;3.42;;;17.70;99.90;;;;;;4988159;28;20031;-32
2022/10/25 12:18:32;;;;;;;6.03;2.80;;;17.80;99.90;;;;;;4992549;28;20073;-31
2022/10/25 12:20:58;;;;;;;7.30;3.08;;;17.80;99.90;;;;;;4986016;28;20045;-31
2022/10/25 12:23:26;;;;;;;9.50;3.35;;;17.50;99.90;;;;;;4990045;28;20038;-30
2022/10/25 12:26:09;;;;;;;4.80;2.72;;;17.30;99.90;;;;;;4990249;28;20038;-33
2022/10/25 12:28:47;;;;;;;9.13;2.92;;;17.50;99.90;;;;;;4992710;28;20034;-31
2022/10/25 12:31:20;;;;;;;6.95;3.15;;;17.80;99.90;;;;;;4990113;28;20065;-34
2022/10/25 12:34:18;;;;;;;6.43;2.88;;;18.90;99.90;;;;;;4983849;28;20122;-32
2022/10/25 12:36:48;;;;;;;11.23;3.38;;;20.00;99.90;;;;;;4999510;28;20112;-32
2022/10/25 12:39:36;;;;;;;7.65;3.38;;;20.60;99.90;;;;;;4978154;28;20050;-33
2022/10/25 12:42:16;;;;;;;4.97;2.50;;;21.60;99.90;;;;;;4985983;28;20039;-31
2022/10/25 12:45:06;;;;;;;5.32;3.47;;;21.90;99.90;;;;;;4990097;28;20043;-30
2022/10/25 12:48:02;;;;;;;5.32;2.83;;;21.10;99.90;;;;;;4991351;28;20042;-31
2022/10/25 12:50:57;;;;;;;7.90;3.00;;;20.80;99.90;;;;;;4992010;28;20034;-31
2022/10/25 12:53:32;;;;;;;4.30;2.63;;;20.90;99.90;;;;;;4992920;28;20078;-30
2022/10/25 12:56:16;;;;;;;6.03;3.40;;;20.70;99.90;;;;;;4983553;28;20035;-31